METAR Data
IDs: Format: Raw Decoded Include TAF

Data at: 0221 UTC 20 Sep 2020

KGOO 200215Z AUTO 32003KT 10SM CLR 21/09 A3000 RMK A01
KGOO 200155Z AUTO 32004KT 10SM CLR 22/09 A3000 RMK A01
KGOO 200135Z AUTO 31004KT 10SM CLR 22/08 A3000 RMK A01
KGOO 200115Z AUTO 31005KT 10SM CLR 23/08 A3000 RMK A01
KGOO 200055Z AUTO 32004KT 10SM CLR 23/07 A3000 RMK A01
KGOO 200035Z AUTO 30004KT 10SM CLR 24/08 A3000 RMK A01
KGOO 200015Z AUTO 32007KT 260V340 10SM CLR 24/07 A3000 RMK A01
KGOO 192355Z AUTO 30006KT 10SM CLR 24/07 A3001 RMK A01
KGOO 192335Z AUTO VRB06KT 10SM CLR 26/07 A3001 RMK A01
KGOO 192315Z AUTO 31006KT 10SM CLR 24/07 A3001 RMK A01
KGOO 192250Z AUTO 28007KT 250V320 10SM CLR 24/07 A3002 RMK A01
KGOO 192235Z AUTO 32005KT 10SM CLR 24/07 A3002 RMK A01
KGOO 192215Z AUTO 30005KT 10SM CLR 24/07 A3002 RMK A01
KGOO 192155Z AUTO VRB06G11KT 10SM CLR 24/08 A3002 RMK A01
KGOO 192130Z AUTO VRB06KT 9SM CLR 24/08 A3003 RMK A01
KGOO 192115Z AUTO 29010KT 10SM CLR 24/07 A3004 RMK A01
KGOO 192055Z AUTO 27007KT 220V300 10SM CLR 25/07 A3004 RMK A01
KGOO 192035Z AUTO 28006KT 10SM CLR 24/05 A3004 RMK A01
KGOO 192015Z AUTO 31004KT 10SM CLR 24/05 A3004 RMK A01
KGOO 191955Z AUTO VRB04KT 10SM CLR 24/05 A3005 RMK A01
KGOO 191935Z AUTO 00000KT 10SM CLR 24/03 A3005 RMK A01
KGOO 191915Z AUTO VRB05KT 10SM CLR 23/05 A3006 RMK A01
KGOO 191850Z AUTO 00000KT 10SM CLR 22/05 A3006 RMK A01
KGOO 191835Z AUTO 27006KT 10SM CLR 22/06 A3007 RMK A01
KGOO 191815Z AUTO 30005KT 10SM CLR 21/06 A3007 RMK A01
KGOO 191755Z AUTO 27005KT 10SM CLR 21/07 A3007 RMK A01
KGOO 191735Z AUTO 30003KT 10SM CLR 21/06 A3007 RMK A01
KGOO 191715Z AUTO 28003KT 10SM CLR 20/07 A3007 RMK A01
KGOO 191650Z AUTO 30003KT 10SM CLR 20/08 A3007 RMK A01
KGOO 191635Z AUTO 00000KT 10SM CLR 19/07 A3006 RMK A01
KGOO 191610Z AUTO 00000KT 10SM CLR 19/07 A3007 RMK A01
KGOO 191555Z AUTO 00000KT 10SM CLR 18/07 A3006 RMK A01
KGOO 191530Z AUTO 00000KT 10SM CLR 17/08 A3006 RMK A01
KGOO 191515Z AUTO 00000KT 10SM CLR 17/08 A3006 RMK A01
KGOO 191455Z AUTO 00000KT 10SM CLR 15/08 A3005 RMK A01
KGOO 191435Z AUTO 00000KT 10SM CLR 14/07 A3005 RMK A01
KGOO 191415Z AUTO 00000KT 10SM CLR 14/07 A3005 RMK A01
KGOO 191350Z AUTO 00000KT 10SM CLR 14/06 A3005 RMK A01
KGOO 191335Z AUTO 00000KT 10SM CLR 13/07 A3004 RMK A01
KGOO 191315Z AUTO 00000KT 10SM CLR 14/07 A3004 RMK A01
KGOO 191255Z AUTO 10004KT 10SM CLR 15/07 A3004 RMK A01
KGOO 191235Z AUTO 09004KT 10SM CLR 15/07 A3003 RMK A01
KGOO 191215Z AUTO 09004KT 10SM CLR 15/07 A3004 RMK A01
KGOO 191155Z AUTO 10004KT 10SM CLR 15/08 A3004 RMK A01
KGOO 191135Z AUTO 09004KT 10SM CLR 15/08 A3004 RMK A01
KGOO 191115Z AUTO 09004KT 10SM CLR 15/08 A3004 RMK A01
KGOO 191055Z AUTO 09004KT 10SM CLR 13/08 A3004 RMK A01
KGOO 191035Z AUTO 10003KT 10SM CLR 14/08 A3004 RMK A01
KGOO 191015Z AUTO 09003KT 10SM CLR 14/08 A3004 RMK A01
KGOO 190955Z AUTO 00000KT 10SM CLR 14/08 A3004 RMK A01
KGOO 190935Z AUTO 00000KT 10SM CLR 14/08 A3004 RMK A01
KGOO 190915Z AUTO 09003KT 10SM CLR 15/08 A3004 RMK A01
KGOO 190855Z AUTO 08003KT 10SM CLR 14/08 A3005 RMK A01
KGOO 190835Z AUTO 00000KT 10SM CLR 14/08 A3005 RMK A01
KGOO 190815Z AUTO 09005KT 10SM CLR 14/08 A3004 RMK A01
KGOO 190755Z AUTO 10005KT 10SM CLR 15/08 A3004 RMK A01
KGOO 190735Z AUTO 10005KT 10SM CLR 15/08 A3004 RMK A01
KGOO 190715Z AUTO 10005KT 10SM CLR 15/08 A3005 RMK A01
KGOO 190655Z AUTO 11005KT 10SM CLR 15/08 A3005 RMK A01
KGOO 190635Z AUTO 10005KT 10SM CLR 15/08 A3005 RMK A01
KGOO 190615Z AUTO 12005KT 10SM CLR 15/08 A3005 RMK A01
KGOO 190555Z AUTO 12003KT 10SM CLR 16/08 A3005 RMK A01
KGOO 190535Z AUTO 12005KT 10SM CLR 16/08 A3005 RMK A01
KGOO 190515Z AUTO 13004KT 10SM CLR 16/08 A3004 RMK A01
KGOO 190450Z AUTO 00000KT 10SM CLR 16/08 A3004 RMK A01
KGOO 190435Z AUTO 12004KT 10SM CLR 16/08 A3004 RMK A01
KGOO 190410Z AUTO VRB03KT 10SM CLR 16/08 A3004 RMK A01
KGOO 190355Z AUTO 13003KT 10SM CLR 16/08 A3003 RMK A01
KGOO 190335Z AUTO VRB03KT 10SM CLR 17/07 A3003 RMK A01
KGOO 190315Z AUTO VRB04KT 10SM CLR 17/07 A3003 RMK A01
KGOO 190255Z AUTO 00000KT 10SM CLR 17/07 A3002 RMK A01
KGOO 190235Z AUTO 00000KT 10SM CLR 17/07 A3001 RMK A01
KGOO 190215Z AUTO 00000KT 10SM CLR 18/07 A3001 RMK A01
KGOO 190155Z AUTO 00000KT 10SM CLR 18/07 A3001 RMK A01
KGOO 190135Z AUTO 00000KT 10SM CLR 19/07 A3001 RMK A01
KGOO 190115Z AUTO VRB03KT 10SM CLR 20/08 A3001 RMK A01
KGOO 190055Z AUTO VRB04G11KT 10SM CLR 21/08 A3001 RMK A01
KGOO 190035Z AUTO VRB04KT 10SM CLR 21/08 A3001 RMK A01
KGOO 190010Z AUTO VRB03KT 10SM CLR 22/08 A3001 RMK A01
KGOO 182355Z AUTO 24008KT 10SM CLR 22/08 A3001 RMK A01
KGOO 182335Z AUTO VRB05KT 10SM CLR 22/09 A3001 RMK A01
KGOO 182315Z AUTO VRB04G11KT 10SM CLR 23/08 A3001 RMK A01
KGOO 182250Z AUTO VRB05G11KT 10SM CLR 23/07 A3001 RMK A01
KGOO 182235Z AUTO VRB05G11KT 10SM FEW049 22/07 A3001 RMK A01
KGOO 182215Z AUTO VRB06G11KT 10SM FEW049 23/08 A3002 RMK A01
KGOO 182155Z AUTO VRB04G13KT 10SM CLR 22/08 A3002 RMK A01
KGOO 182135Z AUTO 18007G15KT 150V220 10SM CLR 22/09 A3002 RMK A01
KGOO 182115Z AUTO 19007G14KT 150V250 10SM FEW044 22/08 A3003 RMK A01
KGOO 182055Z AUTO VRB06G13KT 10SM SCT042 22/08 A3003 RMK A01
KGOO 182035Z AUTO VRB03G10KT 10SM SCT041 21/08 A3004 RMK A01
KGOO 182010Z AUTO VRB03KT 10SM CLR 22/08 A3004 RMK A01
KGOO 181955Z AUTO 14006KT 10SM CLR 20/08 A3004 RMK A01
KGOO 181935Z AUTO VRB03KT 10SM FEW040 FEW046 FEW110 20/08 A3005 RMK A01
KGOO 181915Z AUTO 00000KT 10SM BKN042 BKN080 18/10 A3006 RMK A01
KGOO 181855Z AUTO VRB04KT 10SM SCT043 SCT060 SCT100 18/10 A3006 RMK A01
KGOO 181835Z AUTO 25005KT 10SM FEW041 FEW060 SCT120 18/09 A3005 RMK A01
KGOO 181810Z AUTO 00000KT 10SM FEW041 FEW095 BKN120 18/09 A3005 RMK A01
KGOO 181755Z AUTO VRB03KT 10SM SCT120 18/09 A3005 RMK A01
KGOO 181735Z AUTO VRB03KT 10SM FEW120 18/08 A3005 RMK A01
KGOO 181715Z AUTO 15005KT 10SM BKN120 18/09 A3004 RMK A01
KGOO 181650Z AUTO 12006KT 10SM SCT110 18/08 A3004 RMK A01
KGOO 181635Z AUTO 15006KT 10SM BKN110 18/08 A3004 RMK A01
KGOO 181615Z AUTO 14004KT 10SM SCT110 17/08 A3004 RMK A01
KGOO 181555Z AUTO 00000KT 10SM FEW110 17/08 A3004 RMK A01
KGOO 181535Z AUTO 14003KT 10SM FEW036 FEW110 16/08 A3004 RMK A01
KGOO 181515Z AUTO VRB04KT 10SM FEW120 16/08 A3004 RMK A01
KGOO 181455Z AUTO 11005KT 10SM SCT110 16/08 A3004 RMK A01
KGOO 181435Z AUTO 11003KT 10SM FEW037 BKN110 16/08 A3004 RMK A01